Home > Products > Valid Products > TAF

000
FTUS42 KMLB 051139
TAFDAB
TAF
KDAB 051139Z 0512/0612 34003KT P6SM VCSH SCT040 SCT200
     FM051400 05005KT P6SM VCSH SCT030 SCT060
     FM051600 05009KT P6SM VCTS SCT040CB SCT070
     FM051900 06009KT P6SM SCT040 BKN120
     FM060300 04003KT P6SM FEW040 OVC250
     FM060400 05002KT P6SM OVC050=



000
FTUS42 KMLB 051139
TAFMLB
TAF
KMLB 051139Z 0512/0612 31003KT P6SM FEW040 SCT200
     FM051300 VRB04KT P6SM VCTS SCT040CB BKN060
      TEMPO 0514/0517 3SM TSRA BKN040CB BKN080
     FM051800 06008KT P6SM VCSH SCT040 BKN100
     FM060200 04005KT P6SM FEW040 BKN250
     FM060400 05002KT P6SM SCT050 SCT250=



000
FTUS42 KMLB 051139
TAFMCO
TAF
KMCO 051139Z 0512/0612 VRB02KT P6SM SCT250
     FM051300 36004KT P6SM FEW035 SCT250
     FM051800 06008KT P6SM VCTS SCT040CB BKN080
      TEMPO 0518/0521 3SM TSRA BKN035CB BKN070
     FM052200 06006KT P6SM VCSH SCT040 BKN120
     FM060300 05003KT P6SM BKN120 BKN200=



000
FTUS42 KMLB 051139
TAFVRB
TAF
KVRB 051139Z 0512/0612 VRB02KT P6SM FEW040 SCT200
     FM051300 05006KT P6SM VCTS SCT040CB BKN060
      TEMPO 0514/0517 3SM TSRA BKN040CB BKN080
     FM051800 06008KT P6SM VCSH SCT040 BKN100
     FM060200 04005KT P6SM FEW040 BKN250
     FM060400 05002KT P6SM SCT050 SCT250=



000
FTUS42 KMLB 051139
TAFSFB
TAF
KSFB 051139Z 0512/0612 VRB02KT P6SM SCT250
     FM051300 36004KT P6SM FEW030 SCT250
     FM051700 06008KT P6SM VCTS SCT040CB BKN080
      TEMPO 0518/0521 3SM TSRA BKN040CB BKN070
     FM052200 06006KT P6SM VCSH SCT050 BKN120
     FM060300 05003KT P6SM BKN120 BKN200=



000
FTUS42 KMLB 050914 AAA
TAFMCO
TAF AMD
KMCO 050914Z 0509/0606 00000KT P6SM BKN250
     FM051300 36004KT P6SM FEW030 SCT250
     FM051800 06008KT P6SM VCTS SCT040CB BKN080
      TEMPO 0518/0521 TS BKN035CB BKN070
     FM052200 06006KT P6SM SCT040 BKN120
     FM060300 05003KT P6SM BKN120 BKN200=



000
FTUS42 KMLB 050914 AAA
TAFMCO
TAF AMD
KMCO 050914Z 0509/0606 00000KT P6SM BKN250
     FM051300 36004KT P6SM FEW030 SCT250
     FM051800 06008KT P6SM VCTS SCT040CB BKN080
      TEMPO 0518/0521 TS BKN035CB BKN070
     FM052200 06006KT P6SM SCT040 BKN120
     FM060300 05003KT P6SM BKN120 BKN200=



000
FTUS42 KMLB 050536
TAFMLB
TAF
KMLB 050536Z 0506/0606 31003KT P6SM FEW040 SCT200
     FM051400 04006KT P6SM VCSH SCT030
     FM051700 06009KT P6SM VCTS SCT040CB SCT070
      TEMPO 0517/0520 TS BKN040CB BKN080
     FM052100 04005KT P6SM SCT040 BKN250
     FM060400 05002KT P6SM SCT050 SCT250=



000
FTUS42 KMLB 050536
TAFMCO
TAF
KMCO 050536Z 0506/0606 00000KT P6SM BKN250
     FM051300 36004KT P6SM FEW030 SCT250
     FM051800 06008KT P6SM VCTS SCT040CB BKN080
      TEMPO 0518/0521 TS BKN035CB BKN070
     FM052200 06006KT P6SM SCT040 BKN120
     FM060300 05003KT P6SM BKN120 BKN200=



000
FTUS42 KMLB 050536
TAFDAB
TAF
KDAB 050536Z 0506/0606 34003KT P6SM SCT040 SCT200
     FM051400 05005KT P6SM VCSH SCT030 SCT060
     FM051600 05009KT P6SM VCTS SCT040CB SCT070
     FM051900 06009KT P6SM SCT040 BKN120
     FM060300 04003KT P6SM FEW040 OVC250
     FM060400 05002KT P6SM OVC050=



000
FTUS42 KMLB 050536
TAFSFB
TAF
KSFB 050536Z 0506/0606 VRB02KT P6SM SCT250
     FM051300 36004KT P6SM FEW030 SCT250
     FM051800 06008KT P6SM VCTS SCT040CB BKN080
     FM052200 06006KT P6SM SCT050 BKN120
     FM060300 05003KT P6SM BKN120 BKN200=



000
FTUS42 KMLB 050536
TAFVRB
TAF
KVRB 050536Z 0506/0606 29003KT P6SM FEW040 SCT200
     FM051500 04006KT P6SM VCSH SCT030
     FM051700 06009KT P6SM VCTS SCT040CB SCT070
      TEMPO 0517/0521 TS BKN040CB BKN080
     FM052200 04005KT P6SM SCT040 BKN250
     FM060400 05002KT P6SM SCT050 SCT250=



000
FTUS42 KMLB 050536
TAFMCO
TAF
KMCO 050536Z 0506/0606 00000KT P6SM BKN250
     FM051300 36004KT P6SM FEW030 SCT250
     FM051800 06008KT P6SM VCTS SCT040CB BKN080
      TEMPO 0518/0521 TS BKN035CB BKN070
     FM052200 06006KT P6SM SCT040 BKN120
     FM060300 05003KT P6SM BKN120 BKN200=



000
FTUS42 KMLB 050536
TAFSFB
TAF
KSFB 050536Z 0506/0606 VRB02KT P6SM SCT250
     FM051300 36004KT P6SM FEW030 SCT250
     FM051800 06008KT P6SM VCTS SCT040CB BKN080
     FM052200 06006KT P6SM SCT050 BKN120
     FM060300 05003KT P6SM BKN120 BKN200=



000
FTUS42 KMLB 050536
TAFDAB
TAF
KDAB 050536Z 0506/0606 34003KT P6SM SCT040 SCT200
     FM051400 05005KT P6SM VCSH SCT030 SCT060
     FM051600 05009KT P6SM VCTS SCT040CB SCT070
     FM051900 06009KT P6SM SCT040 BKN120
     FM060300 04003KT P6SM FEW040 OVC250
     FM060400 05002KT P6SM OVC050=



000
FTUS42 KMLB 050536
TAFMLB
TAF
KMLB 050536Z 0506/0606 31003KT P6SM FEW040 SCT200
     FM051400 04006KT P6SM VCSH SCT030
     FM051700 06009KT P6SM VCTS SCT040CB SCT070
      TEMPO 0517/0520 TS BKN040CB BKN080
     FM052100 04005KT P6SM SCT040 BKN250
     FM060400 05002KT P6SM SCT050 SCT250=



000
FTUS42 KMLB 050536
TAFVRB
TAF
KVRB 050536Z 0506/0606 29003KT P6SM FEW040 SCT200
     FM051500 04006KT P6SM VCSH SCT030
     FM051700 06009KT P6SM VCTS SCT040CB SCT070
      TEMPO 0517/0521 TS BKN040CB BKN080
     FM052200 04005KT P6SM SCT040 BKN250
     FM060400 05002KT P6SM SCT050 SCT250=



000
FTUS42 KMLB 050255 AAA
TAFMCO
TAF AMD
KMCO 050255Z 0503/0524 VRB02KT P6SM FEW040 SCT120 SCT250
     FM051400 36004KT P6SM SCT030
     FM051800 04008KT P6SM VCTS SCT040CB SCT070=



000
FTUS42 KMLB 042329
TAFVRB
TAF
KVRB 042329Z 0500/0524 30003KT P6SM -SHRA FEW040 BKN120 BKN200
     FM050200 VRB02KT P6SM FEW040 SCT120
     FM051400 36004KT P6SM SCT030
     FM051700 05008KT P6SM VCTS SCT040CB SCT070=



000
FTUS42 KMLB 042329
TAFDAB
TAF
KDAB 042329Z 0500/0524 30003KT P6SM VCSH FEW040 BKN120 BKN200
     FM050200 VRB02KT P6SM FEW040 SCT120
     FM051400 01004KT P6SM SCT030
     FM051800 06008KT P6SM VCTS SCT040CB SCT070=



000
FTUS42 KMLB 042329
TAFMLB
TAF
KMLB 042329Z 0500/0524 30003KT P6SM FEW040 BKN120 BKN200
     FM050200 VRB02KT P6SM FEW040 SCT120
     FM051400 36004KT P6SM SCT030
     FM051700 05008KT P6SM VCTS SCT040CB SCT070=



000
FTUS42 KMLB 042329
TAFSFB
TAF
KSFB 042329Z 0500/0524 30003KT P6SM FEW040 BKN120 BKN200
     FM050200 VRB02KT P6SM FEW040 SCT120
     FM051400 36004KT P6SM SCT030
     FM051800 04008KT P6SM VCTS SCT040CB SCT070=



000
FTUS42 KMLB 042329
TAFMCO
TAF
KMCO 042329Z 0500/0524 30003KT P6SM FEW040 BKN120 BKN200
     FM050200 VRB02KT P6SM FEW040 SCT120
     FM051400 36004KT P6SM SCT030
     FM051800 04008KT P6SM VCTS SCT040CB SCT070=



000
FTUS42 KMLB 042329
TAFMCO
TAF
KMCO 042329Z 0500/0524 30003KT P6SM FEW040 BKN120 BKN200
     FM050200 VRB02KT P6SM FEW040 SCT120
     FM051400 36004KT P6SM SCT030
     FM051800 04008KT P6SM VCTS SCT040CB SCT070=



000
FTUS42 KMLB 042329
TAFVRB
TAF
KVRB 042329Z 0500/0524 30003KT P6SM -SHRA FEW040 BKN120 BKN200
     FM050200 VRB02KT P6SM FEW040 SCT120
     FM051400 36004KT P6SM SCT030
     FM051700 05008KT P6SM VCTS SCT040CB SCT070=



000
FTUS42 KMLB 042329
TAFMLB
TAF
KMLB 042329Z 0500/0524 30003KT P6SM FEW040 BKN120 BKN200
     FM050200 VRB02KT P6SM FEW040 SCT120
     FM051400 36004KT P6SM SCT030
     FM051700 05008KT P6SM VCTS SCT040CB SCT070=



000
FTUS42 KMLB 042329
TAFDAB
TAF
KDAB 042329Z 0500/0524 30003KT P6SM VCSH FEW040 BKN120 BKN200
     FM050200 VRB02KT P6SM FEW040 SCT120
     FM051400 01004KT P6SM SCT030
     FM051800 06008KT P6SM VCTS SCT040CB SCT070=



000
FTUS42 KMLB 042329
TAFSFB
TAF
KSFB 042329Z 0500/0524 30003KT P6SM FEW040 BKN120 BKN200
     FM050200 VRB02KT P6SM FEW040 SCT120
     FM051400 36004KT P6SM SCT030
     FM051800 04008KT P6SM VCTS SCT040CB SCT070=



000
FTUS42 KMLB 042050 AAA
TAFSFB
TAF AMD
KSFB 042050Z 0421/0518 35007KT P6SM VCTS SCT040CB BKN070 OVC110
      TEMPO 0421/0422 5SM TSRA
     FM050000 28003KT P6SM FEW040 SCT120 BKN200
     FM051400 36004KT P6SM FEW025 SCT150 BKN250=



000
FTUS42 KMLB 042049 AAB
TAFMCO
TAF AMD
KMCO 042049Z 0421/0518 33005KT P6SM VCTS FEW020 BKN050CB OVC100
      TEMPO 0421/0422 4SM TSRA
     FM050000 28003KT P6SM FEW040 SCT120 BKN200
     FM051400 36004KT P6SM FEW025 SCT150 BKN250=



000
FTUS42 KMLB 042048 AAB
TAFMLB
TAF AMD
KMLB 042048Z 0421/0518 07008KT P6SM VCTS SCT035CB BKN070 OVC100
      TEMPO 0421/0422 5SM TSRA
     FM050000 05004KT P6SM VCSH SCT035 BKN100
     FM051400 36005KT P6SM FEW025 SCT150 BKN250=



000
FTUS42 KMLB 042048 AAB
TAFMLB
TAF AMD
KMLB 042048Z 0421/0518 07008KT P6SM VCTS SCT035CB BKN070 OVC100
      TEMPO 0421/0422 5SM TSRA
     FM050000 05004KT P6SM VCSH SCT035 BKN100
     FM051400 36005KT P6SM FEW025 SCT150 BKN250=



000
FTUS42 KMLB 042012 AAA
TAFVRB
TAF AMD
KVRB 042012Z 0420/0518 VRB04KT P6SM VCSH FEW070 FEW090 SCT120
     FM050000 05004KT P6SM VCSH SCT035 BKN100
     FM051400 34005KT P6SM FEW025 SCT150 BKN250=



000
FTUS42 KMLB 041911 AAA
TAFMCO
TAF AMD
KMCO 041911Z 0419/0518 VRB06KT P6SM VCTS FEW015 BKN040CB OVC100
      TEMPO 0419/0422 VRB20G34KT 2SM TSRA BKN035CB BKN070
     FM050000 28003KT P6SM FEW040 SCT120 BKN200
     FM051400 36004KT P6SM FEW025 SCT150 BKN250=



000
FTUS42 KMLB 041731
TAFMCO
TAF
KMCO 041731Z 0418/0518 32007KT P6SM VCTS SCT035CB SCT100 SCT150
      TEMPO 0419/0422 3SM TSRA BKN035CB BKN070
     FM050000 28003KT P6SM FEW040 SCT120 BKN200
     FM051400 36004KT P6SM FEW025 SCT150 BKN250=



000
FTUS42 KMLB 041731
TAFVRB
TAF
KVRB 041731Z 0418/0518 02008KT P6SM VCTS SCT015 BKN030CB BKN035
      TEMPO 0418/0421 VRB20G30KT 1 1/2SM +TSRA BKN015CB BKN025CB
      BKN050
     FM050000 05004KT P6SM VCSH SCT035 BKN100
     FM051400 34005KT P6SM FEW025 SCT150 BKN250=



000
FTUS42 KMLB 041731
TAFDAB
TAF
KDAB 041731Z 0418/0518 05007KT P6SM VCSH FEW030 FEW100 BKN250
     FM050000 05004KT P6SM VCSH SCT035 BKN070
     FM051400 01005KT P6SM FEW025 SCT150 BKN250=



000
FTUS42 KMLB 041731
TAFMLB
TAF
KMLB 041731Z 0418/0518 07008KT P6SM VCTS SCT015 SCT035CB OVC080
      TEMPO 0418/0420 2SM TSRA BKN018 BKN035CB BKN050
     FM050000 05004KT P6SM VCSH SCT035 BKN100
     FM051400 36005KT P6SM FEW025 SCT150 BKN250=



000
FTUS42 KMLB 041731
TAFSFB
TAF
KSFB 041731Z 0418/0518 35007KT P6SM VCTS SCT035CB SCT100 SCT150
      TEMPO 0418/0421 3SM TSRA BKN035CB BKN070
     FM050000 28003KT P6SM FEW040 SCT120 BKN200
     FM051400 36004KT P6SM FEW025 SCT150 BKN250=



000
FTUS42 KMLB 041604 AAB
TAFMLB
TAF AMD
KMLB 041604Z 0416/0512 04008KT P6SM VCTS SCT030CB SCT045 BKN070
      TEMPO 0416/0418 TSRA BKN025CB BKN035CB
     FM041800 07008KT P6SM VCTS SCT035CB BKN250
      TEMPO 0419/0422 3SM TSRA BKN035CB BKN080
     FM050000 05004KT P6SM VCSH SCT035 BKN100=



000
FTUS42 KMLB 041604 AAB
TAFMLB
TAF AMD
KMLB 041604Z 0416/0512 04008KT P6SM VCTS SCT030CB SCT045 BKN070
      TEMPO 0416/0418 TSRA BKN025CB BKN035CB
     FM041800 07008KT P6SM VCTS SCT035CB BKN250
      TEMPO 0419/0422 3SM TSRA BKN035CB BKN080
     FM050000 05004KT P6SM VCSH SCT035 BKN100=



000
FTUS42 KMLB 041454 AAA
TAFMCO
TAF AMD
KMCO 041454Z 0415/0512 32007KT P6SM SCT040 SCT150 BKN250
     FM041600 32007KT P6SM VCSH SCT040 SCT090 SCT250
     FM041800 32007KT P6SM VCTS SCT040CB SCT070 BKN120
      TEMPO 0419/0422 3SM TSRA BKN035CB BKN070
     FM050000 28003KT P6SM FEW040 SCT120 BKN200=



000
FTUS42 KMLB 041146
TAFMCO
TAF
KMCO 041146Z 0412/0512 30004KT P6SM SCT040 SCT250
     FM041600 30006KT P6SM VCSH SCT040 SCT090 SCT250
     FM041800 30005KT P6SM VCTS SCT040CB SCT070 BKN120
      TEMPO 0419/0422 3SM TSRA BKN035CB BKN070
     FM050000 28003KT P6SM FEW040 SCT120 BKN200=



000
FTUS42 KMLB 041146
TAFSFB
TAF
KSFB 041146Z 0412/0512 27003KT P6SM FEW040 SCT250
     FM041600 30006KT P6SM VCSH SCT040 SCT090 SCT250
     FM041700 30005KT P6SM VCTS SCT040CB SCT070 BKN120
      TEMPO 0418/0421 3SM TSRA BKN035CB BKN070
     FM050000 28003KT P6SM FEW040 SCT120 BKN200=



000
FTUS42 KMLB 041146
TAFDAB
TAF
KDAB 041146Z 0412/0512 26003KT P6SM FEW035 SCT250
     FM041300 30004KT P6SM SCT030 SCT250
     FM041800 07007KT P6SM VCTS SCT035CB SCT250
     FM050000 05004KT P6SM VCSH SCT035 BKN070=



000
FTUS42 KMLB 041146
TAFVRB
TAF
KVRB 041146Z 0412/0512 VRB02KT P6SM FEW040 SCT250
     FM041300 30004KT P6SM SCT035 SCT250
     FM041800 08009KT P6SM VCTS SCT035CB BKN250
      TEMPO 0418/0421 3SM TSRA BKN035CB BKN080
     FM050000 05004KT P6SM VCSH SCT035 BKN100=



000
FTUS42 KMLB 041146
TAFSFB
TAF
KSFB 041146Z 0412/0512 27003KT P6SM FEW040 SCT250
     FM041600 30006KT P6SM VCSH SCT040 SCT090 SCT250
     FM041700 30005KT P6SM VCTS SCT040CB SCT070 BKN120
      TEMPO 0418/0421 3SM TSRA BKN035CB BKN070
     FM050000 28003KT P6SM FEW040 SCT120 BKN200=



000
FTUS42 KMLB 041146
TAFMCO
TAF
KMCO 041146Z 0412/0512 30004KT P6SM SCT040 SCT250
     FM041600 30006KT P6SM VCSH SCT040 SCT090 SCT250
     FM041800 30005KT P6SM VCTS SCT040CB SCT070 BKN120
      TEMPO 0419/0422 3SM TSRA BKN035CB BKN070
     FM050000 28003KT P6SM FEW040 SCT120 BKN200=



000
FTUS42 KMLB 041146
TAFMLB
TAF
KMLB 041146Z 0412/0512 VRB02KT P6SM SCT250
     FM041300 30004KT P6SM SCT030 SCT250
     FM041800 07008KT P6SM VCTS SCT035CB BKN250
      TEMPO 0419/0422 3SM TSRA BKN035CB BKN080
     FM050000 05004KT P6SM VCSH SCT035 BKN100=



000
FTUS42 KMLB 041146
TAFMLB
TAF
KMLB 041146Z 0412/0512 VRB02KT P6SM SCT250
     FM041300 30004KT P6SM SCT030 SCT250
     FM041800 07008KT P6SM VCTS SCT035CB BKN250
      TEMPO 0419/0422 3SM TSRA BKN035CB BKN080
     FM050000 05004KT P6SM VCSH SCT035 BKN100=



000
FTUS42 KMLB 041146
TAFDAB
TAF
KDAB 041146Z 0412/0512 26003KT P6SM FEW035 SCT250
     FM041300 30004KT P6SM SCT030 SCT250
     FM041800 07007KT P6SM VCTS SCT035CB SCT250
     FM050000 05004KT P6SM VCSH SCT035 BKN070=



000
FTUS42 KMLB 041146
TAFVRB
TAF
KVRB 041146Z 0412/0512 VRB02KT P6SM FEW040 SCT250
     FM041300 30004KT P6SM SCT035 SCT250
     FM041800 08009KT P6SM VCTS SCT035CB BKN250
      TEMPO 0418/0421 3SM TSRA BKN035CB BKN080
     FM050000 05004KT P6SM VCSH SCT035 BKN100=



000
FTUS42 KMLB 040858 AAA
TAFMCO
TAF AMD
KMCO 040858Z 0409/0506 30003KT P6SM FEW045 SCT250
     FM041300 31004KT P6SM SCT040 SCT250
     FM041900 30005KT P6SM VCTS SCT040CB SCT070
      TEMPO 0419/0422 TS BKN035CB BKN070
     FM050000 VRB02KT P6SM FEW040 SCT120=



000
FTUS42 KMLB 040858 AAA
TAFMCO
TAF AMD
KMCO 040858Z 0409/0506 30003KT P6SM FEW045 SCT250
     FM041300 31004KT P6SM SCT040 SCT250
     FM041900 30005KT P6SM VCTS SCT040CB SCT070
      TEMPO 0419/0422 TS BKN035CB BKN070
     FM050000 VRB02KT P6SM FEW040 SCT120=



000
FTUS42 KMLB 040533
TAFMCO
TAF
KMCO 040533Z 0406/0506 30003KT P6SM SCT250
     FM041300 31004KT P6SM SCT030 SCT250
     FM041900 VRB05KT P6SM VCTS SCT040CB SCT070
      TEMPO 0419/0422 TS BKN040CB BKN070
     FM050000 VRB02KT P6SM FEW040 SCT120=



000
FTUS42 KMLB 040533
TAFVRB
TAF
KVRB 040533Z 0406/0506 VRB02KT P6SM FEW040 SCT250
     FM041300 30004KT P6SM SCT035 SCT250
     FM041800 08009KT P6SM VCTS SCT035CB BKN250
      TEMPO 0418/0421 TS BKN035CB BKN080
     FM050000 05004KT P6SM VCSH SCT035 BKN100=



000
FTUS42 KMLB 040533
TAFSFB
TAF
KSFB 040533Z 0406/0506 28003KT P6SM SCT250
     FM041300 30005KT P6SM SCT030 SCT250
     FM041900 31005KT P6SM VCTS SCT040CB SCT070
      TEMPO 0419/0422 TS BKN040CB BKN070
     FM050000 VRB02KT P6SM FEW040 SCT120=



000
FTUS42 KMLB 040533
TAFDAB
TAF
KDAB 040533Z 0406/0506 26003KT P6SM FEW035 SCT250
     FM041300 31004KT P6SM SCT030 SCT250
     FM041800 06007KT P6SM VCTS SCT035CB SCT250
      TEMPO 0418/0421 TS BKN035CB BKN070
     FM050000 05004KT P6SM VCSH SCT035 BKN070=



000
FTUS42 KMLB 040533
TAFMLB
TAF
KMLB 040533Z 0406/0506 VRB02KT P6SM SCT250
     FM041300 30004KT P6SM SCT030 SCT250
     FM041800 07008KT P6SM VCTS SCT035CB BKN250
      TEMPO 0419/0422 TS BKN035CB BKN080
     FM050000 05004KT P6SM VCSH SCT035 BKN100=



000
FTUS42 KMLB 040533
TAFSFB
TAF
KSFB 040533Z 0406/0506 28003KT P6SM SCT250
     FM041300 30005KT P6SM SCT030 SCT250
     FM041900 31005KT P6SM VCTS SCT040CB SCT070
      TEMPO 0419/0422 TS BKN040CB BKN070
     FM050000 VRB02KT P6SM FEW040 SCT120=



000
FTUS42 KMLB 040533
TAFMCO
TAF
KMCO 040533Z 0406/0506 30003KT P6SM SCT250
     FM041300 31004KT P6SM SCT030 SCT250
     FM041900 VRB05KT P6SM VCTS SCT040CB SCT070
      TEMPO 0419/0422 TS BKN040CB BKN070
     FM050000 VRB02KT P6SM FEW040 SCT120=



000
FTUS42 KMLB 040327 AAB
TAFMLB
TAF AMD
KMLB 040327Z 0403/0424 08006KT P6SM VCTS SCT035CB BKN060
     FM040500 VRB02KT P6SM SCT250
     FM041300 32005KT P6SM SCT030 SCT250
     FM041800 05005KT P6SM VCTS SCT035CB SCT070=



000
FTUS42 KMLB 040301 AAA
TAFMCO
TAF AMD
KMCO 040301Z 0403/0424 30003KT P6SM SCT250
     FM041300 31005KT P6SM SCT030 SCT250
     FM041900 VRB05KT P6SM VCTS SCT040CB SCT070
      TEMPO 0419/0422 TS BKN040CB BKN070=



000
FTUS42 KMLB 032333
TAFSFB
TAF
KSFB 032333Z 0400/0424 29003KT P6SM FEW040 SCT250
     FM041300 31005KT P6SM SCT030 SCT250
     FM041900 33006KT P6SM VCTS SCT035CB SCT070=



000
FTUS42 KMLB 032333
TAFDAB
TAF
KDAB 032333Z 0400/0424 VRB02KT P6SM FEW040 SCT250
     FM041300 33005KT P6SM SCT030 SCT250
     FM041800 05008KT P6SM VCTS SCT035CB SCT250=



000
FTUS42 KMLB 032333
TAFMCO
TAF
KMCO 032333Z 0400/0424 30003KT P6SM FEW040 SCT250
     FM041300 31005KT P6SM SCT030 SCT250
     FM041900 33006KT P6SM VCTS SCT035CB SCT070=



000
FTUS42 KMLB 032333
TAFVRB
TAF
KVRB 032333Z 0400/0424 12006KT P6SM FEW040 SCT120 SCT250
     FM040200 VRB02KT P6SM SCT250
     FM041300 30005KT P6SM SCT030 SCT250
     FM041800 05005KT P6SM VCTS SCT035CB SCT070=



000
FTUS42 KMLB 032333
TAFMLB
TAF
KMLB 032333Z 0400/0424 08006KT P6SM FEW120 SCT250
     FM040200 VRB02KT P6SM SCT250
     FM041300 32005KT P6SM SCT030 SCT250
     FM041800 05005KT P6SM VCTS SCT035CB SCT070=



000
FTUS42 KMLB 032333
TAFDAB
TAF
KDAB 032333Z 0400/0424 VRB02KT P6SM FEW040 SCT250
     FM041300 33005KT P6SM SCT030 SCT250
     FM041800 05008KT P6SM VCTS SCT035CB SCT250=



000
FTUS42 KMLB 032333
TAFMLB
TAF
KMLB 032333Z 0400/0424 08006KT P6SM FEW120 SCT250
     FM040200 VRB02KT P6SM SCT250
     FM041300 32005KT P6SM SCT030 SCT250
     FM041800 05005KT P6SM VCTS SCT035CB SCT070=



000
FTUS42 KMLB 032333
TAFVRB
TAF
KVRB 032333Z 0400/0424 12006KT P6SM FEW040 SCT120 SCT250
     FM040200 VRB02KT P6SM SCT250
     FM041300 30005KT P6SM SCT030 SCT250
     FM041800 05005KT P6SM VCTS SCT035CB SCT070=



000
FTUS42 KMLB 032333
TAFSFB
TAF
KSFB 032333Z 0400/0424 29003KT P6SM FEW040 SCT250
     FM041300 31005KT P6SM SCT030 SCT250
     FM041900 33006KT P6SM VCTS SCT035CB SCT070=



000
FTUS42 KMLB 032333
TAFMCO
TAF
KMCO 032333Z 0400/0424 30003KT P6SM FEW040 SCT250
     FM041300 31005KT P6SM SCT030 SCT250
     FM041900 33006KT P6SM VCTS SCT035CB SCT070=



000
FTUS42 KMLB 032145 AAA
TAFMCO
TAF AMD
KMCO 032145Z 0322/0418 30005KT P6SM SCT045 BKN070 BKN250
     FM032300 30005KT P6SM VCSH SCT040 SCT070 BKN250
     FM040200 VRB03KT P6SM SCT050 SCT250=



000
FTUS42 KMLB 032145 AAA
TAFMCO
TAF AMD
KMCO 032145Z 0322/0418 30005KT P6SM SCT045 BKN070 BKN250
     FM032300 30005KT P6SM VCSH SCT040 SCT070 BKN250
     FM040200 VRB03KT P6SM SCT050 SCT250=



000
FTUS42 KMLB 031733
TAFSFB
TAF
KSFB 031733Z 0318/0418 31007KT P6SM SCT035 SCT250
     FM031900 31008KT P6SM VCTS SCT040CB BKN050 BKN250
     FM040000 28005KT P6SM VCSH SCT030 SCT050 BKN250
     FM040300 27003KT P6SM SCT050 SCT250=



000
FTUS42 KMLB 031733
TAFMCO
TAF
KMCO 031733Z 0318/0418 27008KT P6SM SCT035 SCT250
     FM031900 29008KT P6SM VCTS SCT030CB BKN050 BKN250
     FM040000 28005KT P6SM VCSH SCT030 SCT050 BKN250
     FM040300 27003KT P6SM SCT050 SCT250=



000
FTUS42 KMLB 031733
TAFVRB
TAF
KVRB 031733Z 0318/0418 09008KT P6SM VCTS SCT030CB BKN120
     FM032300 21004KT P6SM SCT120=



000
FTUS42 KMLB 031733
TAFDAB
TAF
KDAB 031733Z 0318/0418 30008KT P6SM VCSH SCT035 SCT250
     FM032000 36008KT P6SM VCTS SCT030CB BKN120
     FM040100 25003KT P6SM SCT120=



000
FTUS42 KMLB 031733
TAFMLB
TAF
KMLB 031733Z 0318/0418 09008KT P6SM VCTS SCT040CB SCT250
     FM032300 22005KT P6SM SCT120=



000
FTUS42 KMLB 031733
TAFMLB
TAF
KMLB 031733Z 0318/0418 09008KT P6SM VCTS SCT040CB SCT250
     FM032300 22005KT P6SM SCT120=



000
FTUS42 KMLB 031733
TAFSFB
TAF
KSFB 031733Z 0318/0418 31007KT P6SM SCT035 SCT250
     FM031900 31008KT P6SM VCTS SCT040CB BKN050 BKN250
     FM040000 28005KT P6SM VCSH SCT030 SCT050 BKN250
     FM040300 27003KT P6SM SCT050 SCT250=



000
FTUS42 KMLB 031733
TAFMCO
TAF
KMCO 031733Z 0318/0418 27008KT P6SM SCT035 SCT250
     FM031900 29008KT P6SM VCTS SCT030CB BKN050 BKN250
     FM040000 28005KT P6SM VCSH SCT030 SCT050 BKN250
     FM040300 27003KT P6SM SCT050 SCT250=



000
FTUS42 KMLB 031733
TAFDAB
TAF
KDAB 031733Z 0318/0418 30008KT P6SM VCSH SCT035 SCT250
     FM032000 36008KT P6SM VCTS SCT030CB BKN120
     FM040100 25003KT P6SM SCT120=



000
FTUS42 KMLB 031733
TAFVRB
TAF
KVRB 031733Z 0318/0418 09008KT P6SM VCTS SCT030CB BKN120
     FM032300 21004KT P6SM SCT120=



000
FTUS42 KMLB 031501 AAA
TAFMCO
TAF AMD
KMCO 031501Z 0315/0412 27007KT P6SM SCT035 SCT250
     FM031900 29008KT P6SM VCTS SCT030CB BKN050
     FM040000 28005KT P6SM VCSH SCT030 SCT050 BKN250
     FM040300 27003KT P6SM SCT050 SCT250=



000
FTUS42 KMLB 031128
TAFMCO
TAF
KMCO 031128Z 0312/0412 00000KT P6SM FEW030 BKN250
     FM031400 26005KT P6SM FEW040 SCT250
     FM031900 30008KT P6SM VCTS SCT040CB BKN120
     FM040300 27003KT P6SM SCT120=



000
FTUS42 KMLB 031128
TAFMLB
TAF
KMLB 031128Z 0312/0412 20003KT P6SM SCT250
     FM031400 28006KT P6SM FEW030 SCT250
     FM031900 06008KT P6SM VCTS SCT030CB BKN120
     FM032300 22005KT P6SM SCT120=



000
FTUS42 KMLB 031128
TAFDAB
TAF
KDAB 031128Z 0312/0412 00000KT P6SM SCT250
     FM031400 27006KT P6SM FEW030 SCT250
     FM032000 32008KT P6SM VCTS SCT030CB BKN120
     FM040100 25003KT P6SM SCT120=



000
FTUS42 KMLB 031128
TAFVRB
TAF
KVRB 031128Z 0312/0412 24003KT P6SM BKN250
     FM031400 27006KT P6SM FEW030 SCT250
     FM031800 07008KT P6SM VCTS SCT030CB BKN120
     FM032300 21004KT P6SM SCT120=



000
FTUS42 KMLB 031128
TAFSFB
TAF
KSFB 031128Z 0312/0412 26003KT P6SM SKC
     FM031400 29006KT P6SM FEW040 SCT250
     FM031900 31008KT P6SM VCTS SCT040CB BKN120
     FM040200 27003KT P6SM SCT120=



000
FTUS42 KMLB 031128
TAFMCO
TAF
KMCO 031128Z 0312/0412 00000KT P6SM FEW030 BKN250
     FM031400 26005KT P6SM FEW040 SCT250
     FM031900 30008KT P6SM VCTS SCT040CB BKN120
     FM040300 27003KT P6SM SCT120=



000
FTUS42 KMLB 031128
TAFVRB
TAF
KVRB 031128Z 0312/0412 24003KT P6SM BKN250
     FM031400 27006KT P6SM FEW030 SCT250
     FM031800 07008KT P6SM VCTS SCT030CB BKN120
     FM032300 21004KT P6SM SCT120=



000
FTUS42 KMLB 031128
TAFDAB
TAF
KDAB 031128Z 0312/0412 00000KT P6SM SCT250
     FM031400 27006KT P6SM FEW030 SCT250
     FM032000 32008KT P6SM VCTS SCT030CB BKN120
     FM040100 25003KT P6SM SCT120=



000
FTUS42 KMLB 031128
TAFMLB
TAF
KMLB 031128Z 0312/0412 20003KT P6SM SCT250
     FM031400 28006KT P6SM FEW030 SCT250
     FM031900 06008KT P6SM VCTS SCT030CB BKN120
     FM032300 22005KT P6SM SCT120=



000
FTUS42 KMLB 031128
TAFSFB
TAF
KSFB 031128Z 0312/0412 26003KT P6SM SKC
     FM031400 29006KT P6SM FEW040 SCT250
     FM031900 31008KT P6SM VCTS SCT040CB BKN120
     FM040200 27003KT P6SM SCT120=



000
FTUS42 KMLB 030900 AAA
TAFMCO
TAF AMD
KMCO 030900Z 0309/0406 00000KT P6SM BKN250
     FM031400 26006KT P6SM FEW040 SCT250
     FM031900 30008KT P6SM VCTS SCT040CB BKN120
     FM040200 27004KT P6SM SCT120=



000
FTUS42 KMLB 030533
TAFMCO
TAF
KMCO 030533Z 0306/0406 22003KT P6SM BKN250
     FM031400 26006KT P6SM FEW040 SCT250
     FM031900 30008KT P6SM VCTS SCT040CB BKN120
     FM040200 27004KT P6SM SCT120=



000
FTUS42 KMLB 030533
TAFDAB
TAF
KDAB 030533Z 0306/0406 22003KT P6SM SCT250
     FM031400 27006KT P6SM FEW030 SCT250
     FM032000 32008KT P6SM VCTS SCT030CB BKN120
     FM040100 25003KT P6SM SCT120=



000
FTUS42 KMLB 030533
TAFMLB
TAF
KMLB 030533Z 0306/0406 23003KT P6SM SCT250
     FM031400 28006KT P6SM FEW030 SCT250
     FM031900 06008KT P6SM VCTS SCT030CB BKN120
     FM032300 22005KT P6SM SCT120=



000
FTUS42 KMLB 030533
TAFSFB
TAF
KSFB 030533Z 0306/0406 21003KT P6SM SKC
     FM031400 26006KT P6SM FEW040 SCT250
     FM031900 29008KT P6SM VCTS SCT040CB BKN120
     FM040200 27003KT P6SM SCT120=



000
FTUS42 KMLB 030533
TAFVRB
TAF
KVRB 030533Z 0306/0406 24003KT P6SM BKN250
     FM031400 27006KT P6SM FEW030 SCT250
     FM031800 07008KT P6SM VCTS SCT030CB BKN120
     FM032300 21004KT P6SM SCT120=



000
FTUS42 KMLB 030250 AAA
TAFMCO
TAF AMD
KMCO 030250Z 0303/0324 VRB02KT P6SM SCT040 BKN250
     FM031300 26007KT P6SM SCT030 SCT250
     FM031900 30006KT P6SM VCTS SCT035CB SCT070=



000
FTUS42 KMLB 030250 AAA
TAFMCO
TAF AMD
KMCO 030250Z 0303/0324 VRB02KT P6SM SCT040 BKN250
     FM031300 26007KT P6SM SCT030 SCT250
     FM031900 30006KT P6SM VCTS SCT035CB SCT070=



000
FTUS42 KMLB 022345
TAFMCO
TAF
KMCO 022345Z 0300/0324 21007KT P6SM VCTS SCT035CB BKN050 BKN250
      TEMPO 0300/0301 VRB15G28KT 3SM TSRA BKN035CB
     FM030100 21003KT P6SM SCT040 BKN250
     FM031300 26007KT P6SM SCT030 SCT250
     FM031900 30006KT P6SM VCTS SCT035CB SCT070=



000
FTUS42 KMLB 022345
TAFVRB
TAF
KVRB 022345Z 0300/0324 13006KT P6SM SCT040
     FM030400 VRB03KT P6SM SCT250
     FM031300 25006KT P6SM SCT030 SCT250
     FM031800 10008KT P6SM VCTS SCT035CB SCT070=



000
FTUS42 KMLB 022345
TAFDAB
TAF
KDAB 022345Z 0300/0324 18004KT P6SM VCSH SCT040 BKN250
     FM030200 22003KT P6SM SCT250
     FM031300 27007KT P6SM SCT030 SCT250
     FM031800 10008KT P6SM VCTS SCT035CB SCT070=



000
FTUS42 KMLB 022345
TAFMCO
TAF
KMCO 022345Z 0300/0324 21007KT P6SM VCTS SCT035CB BKN050 BKN250
      TEMPO 0300/0301 VRB15G28KT 3SM TSRA BKN035CB
     FM030100 21003KT P6SM SCT040 BKN250
     FM031300 26007KT P6SM SCT030 SCT250
     FM031900 30006KT P6SM VCTS SCT035CB SCT070=



000
FTUS42 KMLB 022345
TAFDAB
TAF
KDAB 022345Z 0300/0324 18004KT P6SM VCSH SCT040 BKN250
     FM030200 22003KT P6SM SCT250
     FM031300 27007KT P6SM SCT030 SCT250
     FM031800 10008KT P6SM VCTS SCT035CB SCT070=



000
FTUS42 KMLB 022345
TAFMLB
TAF
KMLB 022345Z 0300/0324 13006KT P6SM SCT040 BKN250
     FM030400 VRB03KT P6SM SCT250
     FM031300 25006KT P6SM SCT030 SCT250
     FM031900 10008KT P6SM VCTS SCT035CB SCT070=



000
FTUS42 KMLB 022345
TAFSFB
TAF
KSFB 022345Z 0300/0324 15004KT P6SM VCTS SCT030CB BKN050 BKN250
     FM030100 21003KT P6SM SCT050 SCT250
     FM031300 26007KT P6SM SCT030 SCT250
     FM031900 30007KT P6SM VCTS SCT035CB SCT070=



000
FTUS42 KMLB 022345
TAFVRB
TAF
KVRB 022345Z 0300/0324 13006KT P6SM SCT040
     FM030400 VRB03KT P6SM SCT250
     FM031300 25006KT P6SM SCT030 SCT250
     FM031800 10008KT P6SM VCTS SCT035CB SCT070=



000
FTUS42 KMLB 022345
TAFSFB
TAF
KSFB 022345Z 0300/0324 15004KT P6SM VCTS SCT030CB BKN050 BKN250
     FM030100 21003KT P6SM SCT050 SCT250
     FM031300 26007KT P6SM SCT030 SCT250
     FM031900 30007KT P6SM VCTS SCT035CB SCT070=



000
FTUS42 KMLB 022345
TAFMLB
TAF
KMLB 022345Z 0300/0324 13006KT P6SM SCT040 BKN250
     FM030400 VRB03KT P6SM SCT250
     FM031300 25006KT P6SM SCT030 SCT250
     FM031900 10008KT P6SM VCTS SCT035CB SCT070=



000
FTUS42 KMLB 022319 AAB
TAFMCO
TAF AMD
KMCO 022319Z 0223/0318 21007KT P6SM VCTS SCT045CB BKN060
      TEMPO 0223/0301 VRB15G28KT 3SM TSRA BKN035CB
     FM030100 21003KT P6SM SCT040 BKN250
     FM031300 26007KT P6SM SCT030 SCT250=



000
FTUS42 KMLB 022319 AAB
TAFMCO
TAF AMD
KMCO 022319Z 0223/0318 21007KT P6SM VCTS SCT045CB BKN060
      TEMPO 0223/0301 VRB15G28KT 3SM TSRA BKN035CB
     FM030100 21003KT P6SM SCT040 BKN250
     FM031300 26007KT P6SM SCT030 SCT250=



000
FTUS42 KMLB 022127 AAA
TAFDAB
TAF AMD
KDAB 022127Z 0221/0318 14007KT P6SM VCTS SCT035CB BKN050
      TEMPO 0222/0224 VRB15G28KT 3SM TSRA BKN035CB
     FM030000 18004KT P6SM SCT040 BKN250
     FM030400 22003KT P6SM SCT250
     FM031300 27007KT P6SM SCT030 SCT250=



000
FTUS42 KMLB 022116 AAA
TAFMCO
TAF AMD
KMCO 022116Z 0221/0318 21007KT P6SM VCTS SCT045CB BKN060
     FM030000 15004KT P6SM SCT040 BKN250
     FM030400 21003KT P6SM SCT250
     FM031300 26007KT P6SM SCT030 SCT250=



000
FTUS42 KMLB 021727
TAFMLB
TAF
KMLB 021727Z 0218/0318 23007KT P6SM VCSH SCT035
     FM022000 12009KT P6SM SCT035 BKN050
     FM030000 13006KT P6SM SCT040 BKN250
     FM030400 22003KT P6SM SCT250
     FM031300 25006KT P6SM SCT030 SCT250=



000
FTUS42 KMLB 021727
TAFSFB
TAF
KSFB 021727Z 0218/0318 21006KT P6SM VCSH SCT035
     FM022000 21007KT P6SM VCTS SCT035CB BKN050
     FM030000 15004KT P6SM SCT040 BKN250
     FM030400 21003KT P6SM SCT250
     FM031300 26007KT P6SM SCT030 SCT250=



000
FTUS42 KMLB 021727
TAFDAB
TAF
KDAB 021727Z 0218/0318 23007KT P6SM VCSH SCT035
     FM022000 14007KT P6SM VCTS SCT035CB BKN050
     FM030000 18004KT P6SM SCT040 BKN250
     FM030400 22003KT P6SM SCT250
     FM031300 27007KT P6SM SCT030 SCT250=



000
FTUS42 KMLB 021727
TAFMCO
TAF
KMCO 021727Z 0218/0318 21006KT P6SM VCSH SCT035
     FM022000 21007KT P6SM VCTS SCT035CB BKN050
     FM030000 15004KT P6SM SCT040 BKN250
     FM030400 21003KT P6SM SCT250
     FM031300 26007KT P6SM SCT030 SCT250=



000
FTUS42 KMLB 021727
TAFVRB
TAF
KVRB 021727Z 0218/0318 21006KT P6SM VCSH SCT040
     FM021900 12009KT P6SM SCT040
     FM030000 13006KT P6SM SCT040
     FM030400 22003KT P6SM SCT250
     FM031300 25006KT P6SM SCT030 SCT250=



000
FTUS42 KMLB 021727
TAFMCO
TAF
KMCO 021727Z 0218/0318 21006KT P6SM VCSH SCT035
     FM022000 21007KT P6SM VCTS SCT035CB BKN050
     FM030000 15004KT P6SM SCT040 BKN250
     FM030400 21003KT P6SM SCT250
     FM031300 26007KT P6SM SCT030 SCT250=



000
FTUS42 KMLB 021727
TAFSFB
TAF
KSFB 021727Z 0218/0318 21006KT P6SM VCSH SCT035
     FM022000 21007KT P6SM VCTS SCT035CB BKN050
     FM030000 15004KT P6SM SCT040 BKN250
     FM030400 21003KT P6SM SCT250
     FM031300 26007KT P6SM SCT030 SCT250=



000
FTUS42 KMLB 021727
TAFMLB
TAF
KMLB 021727Z 0218/0318 23007KT P6SM VCSH SCT035
     FM022000 12009KT P6SM SCT035 BKN050
     FM030000 13006KT P6SM SCT040 BKN250
     FM030400 22003KT P6SM SCT250
     FM031300 25006KT P6SM SCT030 SCT250=



000
FTUS42 KMLB 021727
TAFVRB
TAF
KVRB 021727Z 0218/0318 21006KT P6SM VCSH SCT040
     FM021900 12009KT P6SM SCT040
     FM030000 13006KT P6SM SCT040
     FM030400 22003KT P6SM SCT250
     FM031300 25006KT P6SM SCT030 SCT250=



000
FTUS42 KMLB 021727
TAFDAB
TAF
KDAB 021727Z 0218/0318 23007KT P6SM VCSH SCT035
     FM022000 14007KT P6SM VCTS SCT035CB BKN050
     FM030000 18004KT P6SM SCT040 BKN250
     FM030400 22003KT P6SM SCT250
     FM031300 27007KT P6SM SCT030 SCT250=



000
FTUS42 KMLB 021644 AAA
TAFDAB
TAF AMD
KDAB 021644Z 0217/0312 21006KT P6SM SCT030 BKN250
      TEMPO 0217/0218 5SM SHRA BKN030
     FM021800 11007KT P6SM VCTS SCT030CB BKN100
     FM030000 21003KT P6SM BKN120=



000
FTUS42 KMLB 021622 AAB
TAFMLB
TAF AMD
KMLB 021622Z 0216/0312 VRB05KT P6SM SCT030
     FM021800 11010KT P6SM VCTS SCT030CB BKN100
     FM022200 12007KT P6SM SCT100 BKN250
     FM030000 17004KT P6SM BKN120=



000
FTUS42 KMLB 021621 AAB
TAFSFB
TAF AMD
KSFB 021621Z 0216/0312 VRB04KT P6SM SCT030 SCT035 BKN045
     FM022000 16008KT P6SM VCTS SCT035CB BKN100
     FM030000 19004KT P6SM SCT050 BKN120=



000
FTUS42 KMLB 021531 AAB
TAFMLB
TAF AMD
KMLB 021531Z 0216/0312 23005KT P6SM BKN030
      TEMPO 0216/0218 SCT030
     FM021800 11010KT P6SM VCTS SCT030CB BKN100
     FM022200 12007KT P6SM SCT100 BKN250
     FM030000 17004KT P6SM BKN120=



000
FTUS42 KMLB 021530 AAA
TAFSFB
TAF AMD
KSFB 021530Z 0216/0312 VRB06KT P6SM BKN024
     FM022000 16008KT P6SM VCTS SCT035CB BKN100
     FM030000 19004KT P6SM SCT050 BKN120=



000
FTUS42 KMLB 021456 AAA
TAFMCO
TAF AMD
KMCO 021456Z 0215/0312 23005KT P6SM SCT020 SCT250
     FM022000 21007KT P6SM VCTS SCT035CB BKN100
     FM030000 15004KT P6SM SCT050 BKN120=



    US Dept of Commerce
    National Oceanic and Atmospheric Administration
    National Weather Service
    1325 East West Highway
    Silver Spring, MD 20910
    Page Author: NWS Internet Services Team
Disclaimer
Information Quality
Credits
Glossary
Privacy Policy
Freedom of Information Act (FOIA)
About Us
Career Opportunities